createdAt,value
2017-10-13T00:00:14.141Z,14.33
2017-10-13T00:01:14.464Z,14.18
2017-10-13T00:02:14.779Z,14.22
2017-10-13T00:03:14.780Z,14.23
2017-10-13T00:04:14.766Z,14.19
2017-10-13T00:05:14.766Z,14.15
2017-10-13T00:06:14.753Z,14.16
2017-10-13T00:07:14.101Z,14.19
2017-10-13T00:08:14.093Z,14.07
2017-10-13T00:09:14.414Z,14.12
2017-10-13T00:10:14.413Z,14.15
2017-10-13T00:11:14.073Z,14.18
2017-10-13T00:12:14.068Z,14.12
2017-10-13T00:13:14.385Z,14.13
2017-10-13T00:14:14.055Z,14.07
2017-10-13T00:15:14.698Z,14.05
2017-10-13T00:16:14.692Z,14.07
2017-10-13T00:17:14.036Z,14
2017-10-13T00:18:14.030Z,14.03
2017-10-13T00:19:14.026Z,14.05
2017-10-13T00:20:14.666Z,14.04
2017-10-13T00:21:14.338Z,14.07
2017-10-13T00:22:14.328Z,14.12
2017-10-13T00:23:14.644Z,14.08
2017-10-13T00:24:13.993Z,14.12
2017-10-13T00:25:13.987Z,14.12
2017-10-13T00:26:14.307Z,14.13
2017-10-13T00:27:14.298Z,14.15
2017-10-13T00:28:14.291Z,14.07
2017-10-13T00:29:13.962Z,14.08
2017-10-13T00:30:13.953Z,14.07
2017-10-13T00:31:14.275Z,14.04
2017-10-13T00:32:14.269Z,14.03
2017-10-13T00:33:13.937Z,13.97
2017-10-13T00:34:13.929Z,13.93
2017-10-13T00:35:14.244Z,13.94
2017-10-13T00:36:13.919Z,14.04
2017-10-13T00:37:13.909Z,14.03
2017-10-13T00:38:13.907Z,14.01
2017-10-13T00:39:14.227Z,14.01
2017-10-13T00:40:14.232Z,13.95
2017-10-13T00:41:14.544Z,13.86
2017-10-13T00:42:14.206Z,13.97
2017-10-13T00:43:14.527Z,13.89
2017-10-13T00:44:14.189Z,13.93
2017-10-13T00:45:14.507Z,13.87
2017-10-13T00:46:14.180Z,13.83
2017-10-13T00:47:14.498Z,13.85
2017-10-13T00:48:14.493Z,13.94
2017-10-13T00:49:14.166Z,13.8
2017-10-13T00:50:14.155Z,13.94
2017-10-13T00:51:13.824Z,13.79
2017-10-13T00:52:13.823Z,13.8
2017-10-13T00:53:14.455Z,13.78
2017-10-13T00:54:14.138Z,13.8
2017-10-13T00:55:14.124Z,13.87
2017-10-13T00:56:13.791Z,13.82
2017-10-13T00:57:14.437Z,13.79
2017-10-13T00:58:14.102Z,13.79
2017-10-13T01:03:00.408Z,13.78
2017-10-13T01:04:00.729Z,13.8
2017-10-13T01:05:00.447Z,13.73
2017-10-13T01:06:00.068Z,13.82
2017-10-13T01:07:00.386Z,13.73
2017-10-13T01:08:00.379Z,13.91
2017-10-13T01:09:00.375Z,13.82
2017-10-13T01:10:00.368Z,13.87
2017-10-13T01:11:00.686Z,13.78
2017-10-13T01:12:00.077Z,13.83
2017-10-13T01:13:00.023Z,13.76
2017-10-13T01:14:00.342Z,13.8
2017-10-13T01:15:00.331Z,13.78
2017-10-13T01:16:00.327Z,13.78
2017-10-13T01:17:00.323Z,13.76
2017-10-13T01:18:00.314Z,13.82
2017-10-13T01:19:00.309Z,13.76
2017-10-13T01:20:00.303Z,13.86
2017-10-13T01:21:00.637Z,13.76
2017-10-13T01:21:59.968Z,13.73
2017-10-13T01:22:59.961Z,13.82
2017-10-13T01:24:00.604Z,13.75
2017-10-13T01:25:00.267Z,13.8
2017-10-13T01:25:59.940Z,13.82
2017-10-13T01:27:00.262Z,13.8
2017-10-13T01:28:00.254Z,13.83
2017-10-13T01:28:59.925Z,13.89
2017-10-13T01:30:00.238Z,13.82
2017-10-13T01:31:00.566Z,13.8
2017-10-13T01:32:00.550Z,13.83
2017-10-13T01:32:59.896Z,13.78
2017-10-13T01:33:59.891Z,13.82
2017-10-13T01:35:00.528Z,13.73
2017-10-13T01:36:00.200Z,13.86
2017-10-13T01:37:00.520Z,13.73
2017-10-13T01:38:00.189Z,13.75
2017-10-13T01:38:59.858Z,13.75
2017-10-13T01:39:59.852Z,13.8
2017-10-13T01:41:00.502Z,13.76
2017-10-13T01:41:59.839Z,13.83
2017-10-13T01:43:00.157Z,13.79
2017-10-13T01:44:00.153Z,13.79
2017-10-13T01:44:59.820Z,13.76
2017-10-13T01:46:00.140Z,13.85
2017-10-13T01:47:00.137Z,13.91
2017-10-13T01:48:00.123Z,13.83
2017-10-13T01:48:59.795Z,13.86
2017-10-13T01:50:00.113Z,13.93
2017-10-13T01:51:00.105Z,13.91
2017-10-13T01:51:59.776Z,13.79
2017-10-13T01:53:00.414Z,13.82
2017-10-13T01:54:00.451Z,13.78
2017-10-13T01:55:00.079Z,13.79
2017-10-13T01:56:00.074Z,13.76
2017-10-13T01:57:00.071Z,13.76
2017-10-13T01:57:59.739Z,13.78
2017-10-13T01:59:00.061Z,13.78
2017-10-13T02:00:00.050Z,13.73
2017-10-13T02:01:00.040Z,13.76
2017-10-13T02:02:00.037Z,13.79
2017-10-13T02:03:00.029Z,13.79
2017-10-13T02:04:00.347Z,13.82
2017-10-13T02:05:00.017Z,13.79
2017-10-13T02:06:00.014Z,13.76
2017-10-13T02:07:00.354Z,13.75
2017-10-13T02:07:59.677Z,13.79
2017-10-13T02:08:59.668Z,13.85
2017-10-13T02:09:59.659Z,13.83
2017-10-13T02:10:59.982Z,13.79
2017-10-13T02:12:00.295Z,13.78
2017-10-13T02:13:00.291Z,13.83
2017-10-13T02:13:59.959Z,13.76
2017-10-13T02:14:59.952Z,13.78
2017-10-13T02:15:59.947Z,13.8
2017-10-13T02:16:59.943Z,13.75
2017-10-13T02:18:00.256Z,13.78
2017-10-13T02:19:00.258Z,13.82
2017-10-13T02:19:59.921Z,13.78
2017-10-13T02:20:59.917Z,13.83
2017-10-13T02:21:59.584Z,13.85
2017-10-13T02:22:59.898Z,13.76
2017-10-13T02:23:59.894Z,13.82
2017-10-13T02:24:59.887Z,13.93
2017-10-13T02:25:59.884Z,13.89
2017-10-13T02:26:59.874Z,13.83
2017-10-13T02:27:59.872Z,13.82
2017-10-13T02:28:59.862Z,13.85
2017-10-13T02:29:59.857Z,13.93
2017-10-13T02:30:59.531Z,13.91
2017-10-13T02:31:59.841Z,13.82
2017-10-13T02:32:59.514Z,13.91
2017-10-13T02:33:59.508Z,13.86
2017-10-13T02:34:59.827Z,13.82
2017-10-13T02:35:59.822Z,13.91
2017-10-13T02:36:59.812Z,13.82
2017-10-13T02:37:59.807Z,13.94
2017-10-13T02:38:59.477Z,13.89
2017-10-13T02:39:59.794Z,13.87
2017-10-13T02:41:00.114Z,13.79
2017-10-13T02:41:59.781Z,13.83
2017-10-13T02:43:00.103Z,13.75
2017-10-13T02:43:59.772Z,13.82
2017-10-13T02:44:59.762Z,13.75
2017-10-13T02:46:00.084Z,13.8
2017-10-13T02:46:59.756Z,13.78
2017-10-13T02:48:00.076Z,13.7
2017-10-13T02:48:59.736Z,13.64
2017-10-13T02:49:59.728Z,13.7
2017-10-13T02:50:59.401Z,13.68
2017-10-13T02:51:59.719Z,13.67
2017-10-13T02:52:59.714Z,13.65
2017-10-13T02:53:59.707Z,13.62
2017-10-13T02:55:00.034Z,13.67
2017-10-13T02:55:59.693Z,13.58
2017-10-13T02:56:59.687Z,13.52
2017-10-13T02:57:59.359Z,13.57
2017-10-13T02:58:59.673Z,13.6
2017-10-13T02:59:59.994Z,13.55
2017-10-13T03:00:59.678Z,13.46
2017-10-13T03:01:59.978Z,13.52
2017-10-13T03:02:59.650Z,13.47
2017-10-13T03:03:59.315Z,13.47
2017-10-13T03:04:59.634Z,13.4
2017-10-13T03:05:59.955Z,13.33
2017-10-13T03:06:59.626Z,13.36
2017-10-13T03:07:59.615Z,13.31
2017-10-13T03:08:59.611Z,13.31
2017-10-13T03:09:59.280Z,13.27
2017-10-13T03:10:59.595Z,13.26
2017-10-13T03:11:59.589Z,13.28
2017-10-13T03:12:59.905Z,13.31
2017-10-13T03:13:59.899Z,13.26
2017-10-13T03:14:59.573Z,13.2
2017-10-13T03:15:59.563Z,13.19
2017-10-13T03:16:59.890Z,13.2
2017-10-13T03:17:59.555Z,13.2
2017-10-13T03:18:59.867Z,13.3
2017-10-13T03:19:59.864Z,13.19
2017-10-13T03:20:59.538Z,13.12
2017-10-13T03:21:59.549Z,13.21
2017-10-13T03:22:59.198Z,13.17
2017-10-13T03:23:59.516Z,13.16
2017-10-13T03:24:59.182Z,13.02
2017-10-13T03:25:59.825Z,13.09
2017-10-13T03:26:59.493Z,13.11
2017-10-13T03:27:59.805Z,13.05
2017-10-13T03:28:59.481Z,13.03
2017-10-13T03:29:59.807Z,13.02
2017-10-13T03:30:59.796Z,13.06
2017-10-13T03:31:59.797Z,13.05
2017-10-13T03:32:59.129Z,12.99
2017-10-13T03:33:59.809Z,12.95
2017-10-13T03:34:59.443Z,12.9
2017-10-13T03:35:59.435Z,12.95
2017-10-13T03:36:59.429Z,12.94
2017-10-13T03:37:59.426Z,12.94
2017-10-13T03:38:59.093Z,12.9
2017-10-13T03:39:59.411Z,12.81
2017-10-13T03:40:59.079Z,12.88
2017-10-13T03:41:59.741Z,12.84
2017-10-13T03:42:59.715Z,12.76
2017-10-13T03:43:59.062Z,12.8
2017-10-13T03:44:59.702Z,12.72
2017-10-13T03:45:59.407Z,12.69
2017-10-13T03:46:59.370Z,12.66
2017-10-13T03:47:59.691Z,12.62
2017-10-13T03:48:59.028Z,12.7
2017-10-13T03:49:59.352Z,12.68
2017-10-13T03:50:59.014Z,12.7
2017-10-13T03:51:59.654Z,12.65
2017-10-13T03:52:59.003Z,12.65
2017-10-13T03:53:59.646Z,12.65
2017-10-13T03:54:59.318Z,12.55
2017-10-13T03:55:58.983Z,12.55
2017-10-13T03:56:58.982Z,12.61
2017-10-13T03:57:59.298Z,12.58
2017-10-13T03:58:59.615Z,12.58
2017-10-13T03:59:59.606Z,12.5
2017-10-13T04:00:59.598Z,12.55
2017-10-13T04:01:59.591Z,12.53
2017-10-13T04:02:58.938Z,12.45
2017-10-13T04:03:59.582Z,12.47
2017-10-13T04:04:58.927Z,12.51
2017-10-13T04:05:59.241Z,12.54
2017-10-13T04:06:59.559Z,12.5
2017-10-13T04:07:59.232Z,12.48
2017-10-13T04:08:59.548Z,12.5
2017-10-13T04:09:59.217Z,12.47
2017-10-13T04:10:59.537Z,12.57
2017-10-13T04:11:58.883Z,12.51
2017-10-13T04:12:58.873Z,12.47
2017-10-13T04:13:58.870Z,12.57
2017-10-13T04:14:59.190Z,12.45
2017-10-13T04:15:58.856Z,12.45
2017-10-13T04:16:58.851Z,12.53
2017-10-13T04:17:59.167Z,12.48
2017-10-13T04:18:58.838Z,12.4
2017-10-13T04:19:59.475Z,12.37
2017-10-13T04:20:59.149Z,12.33
2017-10-13T04:21:58.814Z,12.36
2017-10-13T04:22:59.463Z,12.3
2017-10-13T04:23:58.805Z,12.3
2017-10-13T04:24:59.118Z,12.26
2017-10-13T04:25:59.113Z,12.26
2017-10-13T04:26:59.434Z,12.21
2017-10-13T04:27:59.099Z,12.26
2017-10-13T04:28:58.770Z,12.21
2017-10-13T04:29:59.089Z,12.21
2017-10-13T04:30:59.083Z,12.23
2017-10-13T04:31:58.753Z,12.21
2017-10-13T04:32:59.071Z,12.18
2017-10-13T04:33:58.736Z,12.17
2017-10-13T04:34:58.732Z,12.14
2017-10-13T04:35:59.055Z,12.18
2017-10-13T04:36:59.043Z,12.18
2017-10-13T04:37:58.713Z,12.23
2017-10-13T04:38:59.025Z,12.18
2017-10-13T04:39:58.698Z,12.18
2017-10-13T04:40:59.015Z,12.21
2017-10-13T04:41:59.330Z,12.18
2017-10-13T04:42:58.678Z,12.23
2017-10-13T04:43:59.005Z,12.12
2017-10-13T04:44:59.326Z,12.17
2017-10-13T04:45:58.657Z,12.2
2017-10-13T04:46:58.975Z,12.1
2017-10-13T04:47:58.978Z,12.2
2017-10-13T04:48:58.964Z,12.11
2017-10-13T04:49:58.955Z,12.1
2017-10-13T04:50:58.951Z,12.23
2017-10-13T04:51:59.267Z,12.05
2017-10-13T04:52:59.257Z,12.14
2017-10-13T04:53:58.933Z,12.12
2017-10-13T04:54:58.922Z,12.11
2017-10-13T04:55:58.594Z,12.1
2017-10-13T04:56:58.587Z,11.99
2017-10-13T04:57:59.233Z,12.03
2017-10-13T04:58:58.923Z,12.05
2017-10-13T04:59:58.566Z,12
2017-10-13T05:00:59.211Z,11.96
2017-10-13T05:01:58.882Z,11.96
2017-10-13T05:02:58.549Z,11.99
2017-10-13T05:03:58.865Z,11.95
2017-10-13T05:04:58.538Z,11.97
2017-10-13T05:05:58.530Z,11.95
2017-10-13T05:06:58.847Z,12.02
2017-10-13T05:07:58.515Z,11.96
2017-10-13T05:08:59.155Z,11.99
2017-10-13T05:09:59.153Z,11.97
2017-10-13T05:10:58.823Z,11.86
2017-10-13T05:11:58.813Z,11.93
2017-10-13T05:12:59.125Z,11.97
2017-10-13T05:13:59.122Z,11.96
2017-10-13T05:14:58.793Z,11.97
2017-10-13T05:15:58.463Z,11.95
2017-10-13T05:16:58.781Z,11.89
2017-10-13T05:17:59.095Z,11.88
2017-10-13T05:18:58.441Z,11.81
2017-10-13T05:19:59.086Z,11.8
2017-10-13T05:20:59.077Z,11.8
2017-10-13T05:21:59.080Z,11.78
2017-10-13T05:22:59.060Z,11.76
2017-10-13T05:23:58.733Z,11.77
2017-10-13T05:24:59.057Z,11.76
2017-10-13T05:25:58.723Z,11.7
2017-10-13T05:26:58.722Z,11.68
2017-10-13T05:27:58.706Z,11.6
2017-10-13T05:28:58.383Z,11.7
2017-10-13T05:29:59.022Z,11.7
2017-10-13T05:30:58.363Z,11.62
2017-10-13T05:31:58.355Z,11.56
2017-10-13T05:32:58.673Z,11.67
2017-10-13T05:33:58.990Z,11.6
2017-10-13T05:34:58.336Z,11.55
2017-10-13T05:35:58.331Z,11.53
2017-10-13T05:36:58.974Z,11.59
2017-10-13T05:37:58.979Z,11.58
2017-10-13T05:38:58.312Z,11.53
2017-10-13T05:39:58.312Z,11.44
2017-10-13T05:40:58.297Z,11.44
2017-10-13T05:41:58.292Z,11.48
2017-10-13T05:42:58.933Z,11.53
2017-10-13T05:43:58.609Z,11.44
2017-10-13T05:44:58.595Z,11.43
2017-10-13T05:45:58.912Z,11.48
2017-10-13T05:46:58.587Z,11.52
2017-10-13T05:47:58.601Z,11.49
2017-10-13T05:48:58.892Z,11.49
2017-10-13T05:49:58.887Z,11.52
2017-10-13T05:50:58.885Z,11.51
2017-10-13T05:51:58.229Z,11.53
2017-10-13T05:52:58.866Z,11.53
2017-10-13T05:53:58.536Z,11.48
2017-10-13T05:54:58.207Z,11.38
2017-10-13T05:55:58.522Z,11.45
2017-10-13T05:56:58.843Z,11.51
2017-10-13T05:57:58.514Z,11.38
2017-10-13T05:58:58.177Z,11.49
2017-10-13T05:59:58.821Z,11.35
2017-10-13T06:00:58.492Z,11.51
2017-10-13T06:01:58.814Z,11.55
2017-10-13T06:02:58.475Z,11.49
2017-10-13T06:03:58.147Z,11.41
2017-10-13T06:04:58.140Z,11.45
2017-10-13T06:05:58.800Z,11.45
2017-10-13T06:06:58.451Z,11.41
2017-10-13T06:07:58.770Z,11.37
2017-10-13T06:08:58.114Z,11.35
2017-10-13T06:09:58.109Z,11.38
2017-10-13T06:10:58.422Z,11.31
2017-10-13T06:11:58.097Z,11.33
2017-10-13T06:12:58.086Z,11.33
2017-10-13T06:13:58.401Z,11.34
2017-10-13T06:14:58.074Z,11.37
2017-10-13T06:15:58.069Z,11.34
2017-10-13T06:16:58.719Z,11.31
2017-10-13T06:17:58.054Z,11.43
2017-10-13T06:18:58.372Z,11.4
2017-10-13T06:19:58.043Z,11.41
2017-10-13T06:20:58.356Z,11.44
2017-10-13T06:21:58.353Z,11.51
2017-10-13T06:22:58.020Z,11.35
2017-10-13T06:23:58.337Z,11.53
2017-10-13T06:24:58.331Z,11.43
2017-10-13T06:25:58.326Z,11.43
2017-10-13T06:26:58.639Z,11.52
2017-10-13T06:27:57.988Z,11.53
2017-10-13T06:28:58.309Z,11.56
2017-10-13T06:29:58.623Z,11.52
2017-10-13T06:30:58.622Z,11.48
2017-10-13T06:31:58.285Z,11.51
2017-10-13T06:32:58.276Z,11.51
2017-10-13T06:33:57.950Z,11.49
2017-10-13T06:34:58.275Z,11.49
2017-10-13T06:35:57.934Z,11.52
2017-10-13T06:36:58.575Z,11.52
2017-10-13T06:37:57.920Z,11.53
2017-10-13T06:38:58.564Z,11.51
2017-10-13T06:39:58.232Z,11.58
2017-10-13T06:40:57.903Z,11.58
2017-10-13T06:41:58.220Z,11.45
2017-10-13T06:42:58.549Z,11.56
2017-10-13T06:43:57.883Z,11.59
2017-10-13T06:44:58.201Z,11.59
2017-10-13T06:45:58.524Z,11.67
2017-10-13T06:46:58.186Z,11.65
2017-10-13T06:47:58.197Z,11.63
2017-10-13T06:48:58.499Z,11.6
2017-10-13T06:49:58.166Z,11.63
2017-10-13T06:50:57.840Z,11.62
2017-10-13T06:51:58.488Z,11.65
2017-10-13T06:52:58.150Z,11.67
2017-10-13T06:53:58.150Z,11.63
2017-10-13T06:54:58.141Z,11.65
2017-10-13T06:55:58.123Z,11.73
2017-10-13T06:56:57.792Z,11.67
2017-10-13T06:57:58.111Z,11.65
2017-10-13T06:58:58.106Z,11.7
2017-10-13T06:59:58.421Z,11.74
2017-10-13T07:00:58.093Z,11.74
2017-10-13T07:01:58.092Z,11.65
2017-10-13T07:02:58.079Z,11.7
2017-10-13T07:03:58.072Z,11.71
2017-10-13T07:04:57.741Z,11.77
2017-10-13T07:05:58.061Z,11.71
2017-10-13T07:06:58.048Z,11.71
2017-10-13T07:07:58.064Z,11.77
2017-10-13T07:08:58.038Z,11.83
2017-10-13T07:09:57.706Z,11.8
2017-10-13T07:10:58.023Z,11.99
2017-10-13T07:11:58.026Z,11.91
2017-10-13T07:12:58.011Z,11.99
2017-10-13T07:13:57.680Z,12.03
2017-10-13T07:14:58.335Z,12.1
2017-10-13T07:15:57.990Z,12.14
2017-10-13T07:16:57.983Z,12.17
2017-10-13T07:17:58.304Z,12.12
2017-10-13T07:18:57.979Z,12.26
2017-10-13T07:19:57.965Z,12.28
2017-10-13T07:20:58.282Z,12.21
2017-10-13T07:21:58.288Z,12.28
2017-10-13T07:22:57.621Z,12.28
2017-10-13T07:23:57.616Z,12.28
2017-10-13T07:24:58.256Z,12.29
2017-10-13T07:25:57.626Z,12.3
2017-10-13T07:26:57.603Z,12.3
2017-10-13T07:27:57.917Z,12.39
2017-10-13T07:28:57.908Z,12.47
2017-10-13T07:29:57.901Z,12.5
2017-10-13T07:30:58.218Z,12.54
2017-10-13T07:31:57.886Z,12.5
2017-10-13T07:32:57.882Z,12.47
2017-10-13T07:33:57.548Z,12.54
2017-10-13T07:34:57.914Z,12.44
2017-10-13T07:35:57.861Z,12.58
2017-10-13T07:36:57.528Z,12.58
2017-10-13T07:37:57.846Z,12.62
2017-10-13T07:38:58.163Z,12.58
2017-10-13T07:39:57.841Z,12.61
2017-10-13T07:40:57.829Z,12.55
2017-10-13T07:41:57.822Z,12.58
2017-10-13T07:42:57.816Z,12.62
2017-10-13T07:43:57.485Z,12.54
2017-10-13T07:44:57.800Z,12.53
2017-10-13T07:45:57.492Z,12.54
2017-10-13T07:46:58.115Z,12.65
2017-10-13T07:47:57.784Z,12.62
2017-10-13T07:48:57.777Z,12.58
2017-10-13T07:49:57.772Z,12.62
2017-10-13T07:50:57.763Z,12.73
2017-10-13T07:51:57.753Z,12.76
2017-10-13T07:52:58.087Z,12.7
2017-10-13T07:53:57.418Z,12.81
2017-10-13T07:54:57.415Z,12.83
2017-10-13T07:55:57.726Z,12.84
2017-10-13T07:56:57.722Z,12.94
2017-10-13T07:57:57.716Z,12.99
2017-10-13T07:58:57.386Z,12.98
2017-10-13T07:59:57.713Z,13.03
2017-10-13T08:00:58.020Z,13.06
2017-10-13T08:01:57.692Z,13.06
2017-10-13T08:02:57.679Z,13.17
2017-10-13T08:03:58.007Z,13.17
2017-10-13T08:04:57.671Z,13.19
2017-10-13T08:05:57.669Z,13.17
2017-10-13T08:06:57.654Z,13.21
2017-10-13T08:07:57.658Z,13.28
2017-10-13T08:08:57.649Z,13.33
2017-10-13T08:09:57.637Z,13.4
2017-10-13T08:10:57.637Z,13.47
2017-10-13T08:11:57.300Z,13.52
2017-10-13T08:12:57.620Z,13.47
2017-10-13T08:13:57.940Z,13.49
2017-10-13T08:14:57.605Z,13.54
2017-10-13T08:15:57.608Z,13.58
2017-10-13T08:16:57.283Z,13.55
2017-10-13T08:17:57.909Z,13.55
2017-10-13T08:18:57.909Z,13.71
2017-10-13T08:19:57.581Z,13.79
2017-10-13T08:20:57.907Z,13.78
2017-10-13T08:21:57.561Z,13.83
2017-10-13T08:22:57.888Z,13.95
2017-10-13T08:23:57.226Z,13.97
2017-10-13T08:24:57.544Z,14.03
2017-10-13T08:25:57.861Z,14.11
2017-10-13T08:26:57.206Z,14.11
2017-10-13T08:27:57.523Z,14.13
2017-10-13T08:28:57.518Z,14.23
2017-10-13T08:29:57.844Z,14.2
2017-10-13T08:30:57.504Z,14.19
2017-10-13T08:31:57.172Z,14.28
2017-10-13T08:32:57.164Z,14.22
2017-10-13T08:33:57.482Z,14.33
2017-10-13T08:34:57.487Z,14.33
2017-10-13T08:35:57.468Z,14.3
2017-10-13T08:36:57.471Z,14.37
2017-10-13T08:37:57.460Z,14.36
2017-10-13T08:38:57.783Z,14.33
2017-10-13T08:39:57.445Z,14.38
2017-10-13T08:40:57.447Z,14.48
2017-10-13T08:41:57.435Z,14.51
2017-10-13T08:42:57.109Z,14.51
2017-10-13T08:43:57.745Z,14.53
2017-10-13T08:44:57.095Z,14.63
2017-10-13T08:45:57.082Z,14.58
2017-10-13T08:46:57.723Z,14.7
2017-10-13T08:47:57.402Z,14.71
2017-10-13T08:48:57.406Z,14.71
2017-10-13T08:49:57.384Z,14.63
2017-10-13T08:50:57.385Z,14.82
2017-10-13T08:51:57.700Z,14.86
2017-10-13T08:52:57.043Z,14.86
2017-10-13T08:53:57.359Z,14.78
2017-10-13T08:54:57.351Z,14.9
2017-10-13T08:55:57.343Z,14.92
2017-10-13T08:56:57.337Z,14.93
2017-10-13T08:57:57.335Z,15
2017-10-13T08:58:57.331Z,14.92
2017-10-13T08:59:57.315Z,15.04
2017-10-13T09:00:57.317Z,15.07
2017-10-13T09:01:57.635Z,14.99
2017-10-13T09:02:57.623Z,15.08
2017-10-13T09:03:57.301Z,15.14
2017-10-13T09:04:57.291Z,15.1
2017-10-13T09:05:56.960Z,15.12
2017-10-13T09:06:56.955Z,15.08
2017-10-13T09:07:57.313Z,15.17
2017-10-13T09:08:57.599Z,15.17
2017-10-13T09:09:57.257Z,15.23
2017-10-13T09:10:57.252Z,15.35
2017-10-13T09:11:57.247Z,15.19
2017-10-13T09:12:56.916Z,15.35
2017-10-13T09:13:57.553Z,15.35
2017-10-13T09:14:57.226Z,15.26
2017-10-13T09:15:57.225Z,15.35
2017-10-13T09:16:57.224Z,15.43
2017-10-13T09:17:57.216Z,15.35
2017-10-13T09:18:57.202Z,15.35
2017-10-13T09:19:57.528Z,15.35
2017-10-13T09:20:57.510Z,15.47
2017-10-13T09:21:57.190Z,15.41
2017-10-13T09:22:57.179Z,15.45
2017-10-13T09:23:56.847Z,15.57
2017-10-13T09:24:57.197Z,15.66
2017-10-13T09:25:57.485Z,15.63
2017-10-13T09:26:56.828Z,15.69
2017-10-13T09:27:56.826Z,15.7
2017-10-13T09:28:57.142Z,15.76
2017-10-13T09:29:57.131Z,15.75
2017-10-13T09:30:57.129Z,15.72
2017-10-13T09:31:56.800Z,15.8
2017-10-13T09:32:57.120Z,15.8
2017-10-13T09:33:57.430Z,15.85
2017-10-13T09:34:57.428Z,15.83
2017-10-13T09:35:56.777Z,15.84
2017-10-13T09:36:57.099Z,15.84
2017-10-13T09:37:57.086Z,15.85
2017-10-13T09:38:57.417Z,15.88
2017-10-13T09:39:57.093Z,15.92
2017-10-13T09:40:57.070Z,15.96
2017-10-13T09:41:57.381Z,16
2017-10-13T09:42:57.062Z,15.98
2017-10-13T09:43:57.370Z,16.06
2017-10-13T09:44:57.044Z,16.08
2017-10-13T09:45:57.359Z,16.1
2017-10-13T09:46:57.361Z,16.17
2017-10-13T09:47:57.359Z,16.12
2017-10-13T09:48:57.344Z,16.18
2017-10-13T09:49:57.014Z,16.25
2017-10-13T09:50:56.683Z,16.16
2017-10-13T09:51:57.004Z,16.08
2017-10-13T09:52:56.998Z,16.1
2017-10-13T09:53:57.326Z,16.03
2017-10-13T09:54:57.309Z,15.98
2017-10-13T09:55:56.978Z,16.03
2017-10-13T09:56:56.646Z,16.12
2017-10-13T09:57:56.642Z,16.12
2017-10-13T09:58:56.959Z,16.21
2017-10-13T09:59:56.634Z,16.12
2017-10-13T10:00:57.277Z,16.17
2017-10-13T10:01:56.941Z,16.24
2017-10-13T10:02:57.270Z,16.22
2017-10-13T10:03:56.927Z,16.25
2017-10-13T10:04:56.925Z,16.25
2017-10-13T10:05:56.920Z,16.21
2017-10-13T10:06:56.588Z,16.25
2017-10-13T10:07:57.234Z,16.24
2017-10-13T10:08:56.901Z,16.16
2017-10-13T10:09:56.568Z,16.24
2017-10-13T10:10:56.886Z,16.32
2017-10-13T10:11:56.558Z,16.36
2017-10-13T10:12:56.552Z,16.4
2017-10-13T10:13:56.874Z,16.39
2017-10-13T10:14:56.865Z,16.46
2017-10-13T10:15:56.537Z,16.44
2017-10-13T10:16:56.854Z,16.41
2017-10-13T10:17:56.843Z,16.36
2017-10-13T10:18:56.527Z,16.49
2017-10-13T10:19:57.155Z,16.54
2017-10-13T10:20:57.152Z,16.51
2017-10-13T10:21:56.825Z,16.5
2017-10-13T10:22:57.150Z,16.59
2017-10-13T10:23:56.487Z,16.61
2017-10-13T10:24:56.483Z,16.65
2017-10-13T10:25:56.478Z,16.68
2017-10-13T10:26:56.794Z,16.77
2017-10-13T10:27:56.465Z,16.76
2017-10-13T10:28:56.461Z,16.74
2017-10-13T10:29:56.775Z,16.73
2017-10-13T10:30:57.103Z,16.79
2017-10-13T10:31:56.766Z,16.86
2017-10-13T10:32:56.754Z,16.89
2017-10-13T10:33:56.428Z,16.86
2017-10-13T10:34:56.750Z,16.91
2017-10-13T10:35:56.741Z,16.92
2017-10-13T10:36:56.744Z,16.92
2017-10-13T10:37:57.051Z,16.89
2017-10-13T10:38:57.051Z,16.95
2017-10-13T10:39:56.394Z,16.89
2017-10-13T10:40:56.715Z,16.98
2017-10-13T10:41:56.705Z,17.07
2017-10-13T10:42:57.031Z,16.99
2017-10-13T10:43:56.694Z,17.04
2017-10-13T10:44:56.366Z,17.02
2017-10-13T10:45:57.005Z,17.2
2017-10-13T10:46:56.354Z,17.19
2017-10-13T10:47:56.354Z,17.12
2017-10-13T10:48:56.990Z,17.12
2017-10-13T10:49:56.979Z,17.17
2017-10-13T10:50:56.979Z,17.16
2017-10-13T10:51:56.325Z,17.13
2017-10-13T10:52:56.967Z,17.12
2017-10-13T10:53:56.634Z,17.19
2017-10-13T10:54:56.631Z,17.23
2017-10-13T10:55:56.300Z,17.12
2017-10-13T10:56:56.945Z,17.16
2017-10-13T10:57:56.620Z,17.27
2017-10-13T10:58:56.609Z,17.24
2017-10-13T10:59:56.924Z,17.23
2017-10-13T11:00:56.920Z,17.31
2017-10-13T11:01:56.588Z,17.3
2017-10-13T11:02:56.588Z,17.35
2017-10-13T11:03:56.258Z,17.37
2017-10-13T11:04:56.574Z,17.35
2017-10-13T11:05:56.565Z,17.41
2017-10-13T11:06:56.561Z,17.44
2017-10-13T11:07:56.555Z,17.37
2017-10-13T11:08:56.226Z,17.38
2017-10-13T11:09:56.544Z,17.34
2017-10-13T11:10:56.535Z,17.34
2017-10-13T11:11:56.540Z,17.37
2017-10-13T11:12:56.526Z,17.41
2017-10-13T11:13:56.523Z,17.44
2017-10-13T11:14:56.849Z,17.47
2017-10-13T11:15:56.505Z,17.57
2017-10-13T11:16:56.824Z,17.68
2017-10-13T11:17:56.818Z,17.68
2017-10-13T11:18:56.490Z,17.71
2017-10-13T11:20:56.480Z,17.79
2017-10-13T11:21:56.808Z,17.82
2017-10-13T11:22:56.806Z,17.84
2017-10-13T11:23:56.140Z,17.88
2017-10-13T11:24:56.133Z,17.88
2017-10-13T11:25:56.774Z,17.95
2017-10-13T11:26:56.445Z,17.93
2017-10-13T11:27:56.118Z,17.98
2017-10-13T11:28:56.440Z,18.02
2017-10-13T11:29:56.428Z,17.91
2017-10-13T11:30:56.100Z,17.91
2017-10-13T11:31:56.737Z,18.02
2017-10-13T11:32:56.088Z,17.94
2017-10-13T11:33:56.082Z,17.98
2017-10-13T11:34:56.721Z,18.09
2017-10-13T11:35:56.716Z,17.98
2017-10-13T11:36:56.718Z,18.05
2017-10-13T11:37:56.381Z,18.09
2017-10-13T11:38:56.704Z,18.06
2017-10-13T11:39:56.707Z,17.95
2017-10-13T11:40:56.040Z,17.98
2017-10-13T11:41:56.365Z,17.93
2017-10-13T11:42:56.354Z,18.05
2017-10-13T11:43:56.025Z,18.12
2017-10-13T11:44:56.348Z,18.11
2017-10-13T11:45:56.336Z,18.05
2017-10-13T11:46:56.332Z,18.23
2017-10-13T11:47:56.649Z,18.16
2017-10-13T11:48:56.316Z,18.26
2017-10-13T11:49:55.993Z,18.36
2017-10-13T11:50:56.309Z,18.27
2017-10-13T11:51:56.304Z,18.3
2017-10-13T11:52:56.298Z,18.37
2017-10-13T11:53:55.969Z,18.37
2017-10-13T11:54:56.282Z,18.39
2017-10-13T11:55:55.959Z,18.33
2017-10-13T11:56:56.276Z,18.24
2017-10-13T11:57:55.947Z,18.16
2017-10-13T11:58:55.940Z,18.27
2017-10-13T11:59:56.258Z,18.26
2017-10-13T12:00:56.581Z,18.27
2017-10-13T12:01:55.924Z,18.24
2017-10-13T12:02:56.573Z,18.18
2017-10-13T12:03:56.235Z,18.24
2017-10-13T12:04:56.548Z,18.21
2017-10-13T12:05:56.224Z,18.27
2017-10-13T12:06:56.215Z,18.18
2017-10-13T12:07:55.888Z,18.15
2017-10-13T12:08:56.215Z,18.21
2017-10-13T12:09:55.879Z,18.18
2017-10-13T12:10:56.199Z,18.11
2017-10-13T12:11:56.192Z,18.12
2017-10-13T12:12:56.508Z,18.23
2017-10-13T12:13:55.859Z,18.18
2017-10-13T12:14:55.848Z,18.18
2017-10-13T12:15:56.490Z,18.21
2017-10-13T12:16:56.163Z,18.3
2017-10-13T12:17:56.160Z,18.3
2017-10-13T12:18:56.477Z,18.41
2017-10-13T12:19:55.822Z,18.31
2017-10-13T12:20:56.139Z,18.45
2017-10-13T12:21:55.817Z,18.46
2017-10-13T12:22:55.806Z,18.41
2017-10-13T12:23:56.444Z,18.46
2017-10-13T12:24:55.802Z,18.41
2017-10-13T12:25:56.110Z,18.39
2017-10-13T12:26:56.109Z,18.55
2017-10-13T12:27:56.098Z,18.55
2017-10-13T12:28:56.418Z,18.49
2017-10-13T12:29:56.412Z,18.51
2017-10-13T12:30:55.760Z,18.57
2017-10-13T12:31:55.754Z,18.52
2017-10-13T12:32:55.751Z,18.6
2017-10-13T12:33:56.061Z,18.63
2017-10-13T12:34:56.062Z,18.53
2017-10-13T12:35:56.052Z,18.52
2017-10-13T12:36:56.373Z,18.6
2017-10-13T12:37:56.375Z,18.74
2017-10-13T12:38:56.037Z,18.66
2017-10-13T12:39:56.036Z,18.63
2017-10-13T12:40:56.356Z,18.71
2017-10-13T12:41:56.022Z,18.74
2017-10-13T12:42:56.015Z,18.71
2017-10-13T12:43:56.354Z,18.83
2017-10-13T12:44:55.679Z,18.88
2017-10-13T12:45:55.672Z,18.92
2017-10-13T12:46:56.315Z,18.94
2017-10-13T12:47:55.986Z,19.01
2017-10-13T12:48:55.659Z,19.04
2017-10-13T12:49:56.299Z,19.15
2017-10-13T12:50:55.970Z,19.16
2017-10-13T12:51:55.966Z,19.08
2017-10-13T12:52:55.962Z,19.09
2017-10-13T12:53:56.299Z,19.12
2017-10-13T12:54:55.623Z,19.22
2017-10-13T12:55:55.952Z,19.22
2017-10-13T12:56:55.614Z,19.27
2017-10-13T12:57:55.939Z,19.29
2017-10-13T12:58:55.925Z,19.39
2017-10-13T12:59:55.930Z,19.48